sensor_id;sensor_type;location;lat;lon;timestamp;pressure;altitude;pressure_sealevel;temperature;humidity
49723;BME280;43484;43.608;1.458;2023-06-01T00:00:54;56282.84;;;-139.91;100.00
49723;BME280;43484;43.608;1.458;2023-06-01T00:03:22;56282.84;;;-139.91;100.00
49723;BME280;43484;43.608;1.458;2023-06-01T00:05:50;56282.84;;;-139.91;100.00
49723;BME280;43484;43.608;1.458;2023-06-01T00:08:17;56282.84;;;-139.91;100.00
49723;BME280;43484;43.608;1.458;2023-06-01T00:10:44;56282.84;;;-139.91;100.00
49723;BME280;43484;43.608;1.458;2023-06-01T00:13:11;56282.84;;;-139.91;100.00
49723;BME280;43484;43.608;1.458;2023-06-01T00:15:37;56282.84;;;-139.91;100.00
49723;BME280;43484;43.608;1.458;2023-06-01T00:18:04;56282.84;;;-139.91;100.00
49723;BME280;43484;43.608;1.458;2023-06-01T00:20:32;56282.84;;;-139.91;100.00
49723;BME280;43484;43.608;1.458;2023-06-01T00:22:59;56282.84;;;-139.91;100.00
49723;BME280;43484;43.608;1.458;2023-06-01T00:25:26;56282.84;;;-139.91;100.00
49723;BME280;43484;43.608;1.458;2023-06-01T00:27:53;56282.84;;;-139.91;100.00
49723;BME280;43484;43.608;1.458;2023-06-01T00:30:20;56282.84;;;-139.91;100.00
49723;BME280;43484;43.608;1.458;2023-06-01T00:32:46;56282.84;;;-139.91;100.00
49723;BME280;43484;43.608;1.458;2023-06-01T00:35:13;56282.84;;;-139.91;100.00
49723;BME280;43484;43.608;1.458;2023-06-01T00:37:39;56282.84;;;-139.91;100.00
49723;BME280;43484;43.608;1.458;2023-06-01T00:40:06;56282.84;;;-139.91;100.00
49723;BME280;43484;43.608;1.458;2023-06-01T00:42:34;56282.84;;;-139.91;100.00
49723;BME280;43484;43.608;1.458;2023-06-01T00:45:01;56282.84;;;-139.91;100.00
49723;BME280;43484;43.608;1.458;2023-06-01T00:47:27;56282.84;;;-139.91;100.00
49723;BME280;43484;43.608;1.458;2023-06-01T00:49:54;56282.84;;;-139.91;100.00
49723;BME280;43484;43.608;1.458;2023-06-01T00:52:22;56282.84;;;-139.91;100.00
49723;BME280;43484;43.608;1.458;2023-06-01T00:54:49;56282.84;;;-139.91;100.00
49723;BME280;43484;43.608;1.458;2023-06-01T00:57:16;56282.84;;;-139.91;100.00
49723;BME280;43484;43.608;1.458;2023-06-01T00:59:43;56282.84;;;-139.91;100.00
49723;BME280;43484;43.608;1.458;2023-06-01T01:02:10;56282.84;;;-139.91;100.00
49723;BME280;43484;43.608;1.458;2023-06-01T01:04:39;56282.84;;;-139.91;100.00
49723;BME280;43484;43.608;1.458;2023-06-01T01:07:19;56282.84;;;-139.91;100.00
49723;BME280;43484;43.608;1.458;2023-06-01T01:09:58;56282.84;;;-139.91;100.00
49723;BME280;43484;43.608;1.458;2023-06-01T01:12:44;56282.84;;;-139.91;100.00
49723;BME280;43484;43.608;1.458;2023-06-01T01:15:26;56282.84;;;-139.91;100.00
49723;BME280;43484;43.608;1.458;2023-06-01T01:18:03;56282.84;;;-139.91;100.00
49723;BME280;43484;43.608;1.458;2023-06-01T01:20:41;56282.84;;;-139.91;100.00
49723;BME280;43484;43.608;1.458;2023-06-01T01:23:20;56282.84;;;-139.91;100.00
49723;BME280;43484;43.608;1.458;2023-06-01T01:28:49;56282.84;;;-139.91;100.00
49723;BME280;43484;43.608;1.458;2023-06-01T01:31:18;56282.84;;;-139.91;100.00
49723;BME280;43484;43.608;1.458;2023-06-01T01:33:46;56282.84;;;-139.91;100.00
49723;BME280;43484;43.608;1.458;2023-06-01T01:36:15;56282.84;;;-139.91;100.00
49723;BME280;43484;43.608;1.458;2023-06-01T01:38:42;56282.84;;;-139.91;100.00
49723;BME280;43484;43.608;1.458;2023-06-01T01:41:09;56282.84;;;-139.91;100.00
49723;BME280;43484;43.608;1.458;2023-06-01T01:43:37;56282.84;;;-139.91;100.00
49723;BME280;43484;43.608;1.458;2023-06-01T01:46:14;56282.84;;;-139.91;100.00
49723;BME280;43484;43.608;1.458;2023-06-01T01:49:00;56282.84;;;-139.91;100.00
49723;BME280;43484;43.608;1.458;2023-06-01T01:51:46;56282.84;;;-139.91;100.00
49723;BME280;43484;43.608;1.458;2023-06-01T01:54:16;56282.84;;;-139.91;100.00
49723;BME280;43484;43.608;1.458;2023-06-01T01:56:44;56282.84;;;-139.91;100.00
49723;BME280;43484;43.608;1.458;2023-06-01T01:59:11;56282.84;;;-139.91;100.00
49723;BME280;43484;43.608;1.458;2023-06-01T02:01:39;56282.84;;;-139.91;100.00
49723;BME280;43484;43.608;1.458;2023-06-01T02:04:08;56282.84;;;-139.91;100.00
49723;BME280;43484;43.608;1.458;2023-06-01T02:06:35;56282.84;;;-139.91;100.00
49723;BME280;43484;43.608;1.458;2023-06-01T02:09:03;56282.84;;;-139.91;100.00
49723;BME280;43484;43.608;1.458;2023-06-01T02:11:36;56282.84;;;-139.91;100.00
49723;BME280;43484;43.608;1.458;2023-06-01T02:14:03;56282.84;;;-139.91;100.00
49723;BME280;43484;43.608;1.458;2023-06-01T02:16:30;56282.84;;;-139.91;100.00
49723;BME280;43484;43.608;1.458;2023-06-01T02:18:56;56282.84;;;-139.91;100.00
49723;BME280;43484;43.608;1.458;2023-06-01T02:21:25;56282.84;;;-139.91;100.00
49723;BME280;43484;43.608;1.458;2023-06-01T02:23:52;56282.84;;;-139.91;100.00
49723;BME280;43484;43.608;1.458;2023-06-01T02:26:19;56282.84;;;-139.91;100.00
49723;BME280;43484;43.608;1.458;2023-06-01T02:28:47;56282.84;;;-139.91;100.00
49723;BME280;43484;43.608;1.458;2023-06-01T02:31:14;56282.84;;;-139.91;100.00
49723;BME280;43484;43.608;1.458;2023-06-01T02:33:41;56282.84;;;-139.91;100.00
49723;BME280;43484;43.608;1.458;2023-06-01T02:36:08;56282.84;;;-139.91;100.00
49723;BME280;43484;43.608;1.458;2023-06-01T02:38:34;56282.84;;;-139.91;100.00
49723;BME280;43484;43.608;1.458;2023-06-01T02:41:01;56282.84;;;-139.91;100.00
49723;BME280;43484;43.608;1.458;2023-06-01T02:43:28;56282.84;;;-139.91;100.00
49723;BME280;43484;43.608;1.458;2023-06-01T02:45:56;56282.84;;;-139.91;100.00
49723;BME280;43484;43.608;1.458;2023-06-01T02:48:22;56282.84;;;-139.91;100.00
49723;BME280;43484;43.608;1.458;2023-06-01T02:50:50;56282.84;;;-139.91;100.00
49723;BME280;43484;43.608;1.458;2023-06-01T02:53:17;56282.84;;;-139.91;100.00
49723;BME280;43484;43.608;1.458;2023-06-01T02:55:43;56282.84;;;-139.91;100.00
49723;BME280;43484;43.608;1.458;2023-06-01T02:58:10;56282.84;;;-139.91;100.00
49723;BME280;43484;43.608;1.458;2023-06-01T03:00:42;56282.84;;;-139.91;100.00
49723;BME280;43484;43.608;1.458;2023-06-01T03:03:09;56282.84;;;-139.91;100.00
49723;BME280;43484;43.608;1.458;2023-06-01T03:05:36;56282.84;;;-139.91;100.00
49723;BME280;43484;43.608;1.458;2023-06-01T03:08:03;56282.84;;;-139.91;100.00
49723;BME280;43484;43.608;1.458;2023-06-01T03:10:29;56282.84;;;-139.91;100.00
49723;BME280;43484;43.608;1.458;2023-06-01T03:12:56;56282.84;;;-139.91;100.00
49723;BME280;43484;43.608;1.458;2023-06-01T03:15:23;56282.84;;;-139.91;100.00
49723;BME280;43484;43.608;1.458;2023-06-01T03:17:49;56282.84;;;-139.91;100.00
49723;BME280;43484;43.608;1.458;2023-06-01T03:20:16;56282.84;;;-139.91;100.00
49723;BME280;43484;43.608;1.458;2023-06-01T03:22:44;56282.84;;;-139.91;100.00
49723;BME280;43484;43.608;1.458;2023-06-01T03:25:12;56282.84;;;-139.91;100.00
49723;BME280;43484;43.608;1.458;2023-06-01T03:27:43;56282.84;;;-139.91;100.00
49723;BME280;43484;43.608;1.458;2023-06-01T03:30:10;56282.84;;;-139.91;100.00
49723;BME280;43484;43.608;1.458;2023-06-01T03:32:37;56282.84;;;-139.91;100.00
49723;BME280;43484;43.608;1.458;2023-06-01T03:35:05;56282.84;;;-139.91;100.00
49723;BME280;43484;43.608;1.458;2023-06-01T03:37:34;56282.84;;;-139.91;100.00
49723;BME280;43484;43.608;1.458;2023-06-01T03:40:02;56282.84;;;-139.91;100.00
49723;BME280;43484;43.608;1.458;2023-06-01T03:42:47;56282.84;;;-139.91;100.00
49723;BME280;43484;43.608;1.458;2023-06-01T03:45:15;56282.84;;;-139.91;100.00
49723;BME280;43484;43.608;1.458;2023-06-01T03:47:44;56282.84;;;-139.91;100.00
49723;BME280;43484;43.608;1.458;2023-06-01T03:50:11;56282.84;;;-139.91;100.00
49723;BME280;43484;43.608;1.458;2023-06-01T03:52:38;56282.84;;;-139.91;100.00
49723;BME280;43484;43.608;1.458;2023-06-01T03:55:06;56282.84;;;-139.91;100.00
49723;BME280;43484;43.608;1.458;2023-06-01T03:57:37;56282.84;;;-139.91;100.00
49723;BME280;43484;43.608;1.458;2023-06-01T04:00:05;56282.84;;;-139.91;100.00
49723;BME280;43484;43.608;1.458;2023-06-01T04:02:49;56282.84;;;-139.91;100.00
49723;BME280;43484;43.608;1.458;2023-06-01T04:05:20;56282.84;;;-139.91;100.00
49723;BME280;43484;43.608;1.458;2023-06-01T04:07:49;56282.84;;;-139.91;100.00
49723;BME280;43484;43.608;1.458;2023-06-01T04:10:17;56282.84;;;-139.91;100.00
49723;BME280;43484;43.608;1.458;2023-06-01T04:12:44;56282.84;;;-139.91;100.00
49723;BME280;43484;43.608;1.458;2023-06-01T04:15:13;56282.84;;;-139.91;100.00
49723;BME280;43484;43.608;1.458;2023-06-01T04:17:40;56282.84;;;-139.91;100.00
49723;BME280;43484;43.608;1.458;2023-06-01T04:20:12;56282.84;;;-139.91;100.00
49723;BME280;43484;43.608;1.458;2023-06-01T04:22:40;56282.84;;;-139.91;100.00
49723;BME280;43484;43.608;1.458;2023-06-01T04:25:09;56282.84;;;-139.91;100.00
49723;BME280;43484;43.608;1.458;2023-06-01T04:27:42;56282.84;;;-139.91;100.00
49723;BME280;43484;43.608;1.458;2023-06-01T04:30:12;56282.84;;;-139.91;100.00
49723;BME280;43484;43.608;1.458;2023-06-01T04:32:39;56282.84;;;-139.91;100.00
49723;BME280;43484;43.608;1.458;2023-06-01T04:35:07;56282.84;;;-139.91;100.00
49723;BME280;43484;43.608;1.458;2023-06-01T04:37:35;56282.84;;;-139.91;100.00
49723;BME280;43484;43.608;1.458;2023-06-01T04:40:03;56282.84;;;-139.91;100.00
49723;BME280;43484;43.608;1.458;2023-06-01T04:42:35;56282.84;;;-139.91;100.00
49723;BME280;43484;43.608;1.458;2023-06-01T04:45:03;56282.84;;;-139.91;100.00
49723;BME280;43484;43.608;1.458;2023-06-01T04:47:31;56282.84;;;-139.91;100.00
49723;BME280;43484;43.608;1.458;2023-06-01T04:49:58;56282.84;;;-139.91;100.00
49723;BME280;43484;43.608;1.458;2023-06-01T04:52:25;56282.84;;;-139.91;100.00
49723;BME280;43484;43.608;1.458;2023-06-01T04:54:52;56282.84;;;-139.91;100.00
49723;BME280;43484;43.608;1.458;2023-06-01T04:57:19;56282.84;;;-139.91;100.00
49723;BME280;43484;43.608;1.458;2023-06-01T04:59:46;56282.84;;;-139.91;100.00
49723;BME280;43484;43.608;1.458;2023-06-01T05:02:12;56282.84;;;-139.91;100.00
49723;BME280;43484;43.608;1.458;2023-06-01T05:04:39;56282.84;;;-139.91;100.00
49723;BME280;43484;43.608;1.458;2023-06-01T05:07:06;56282.84;;;-139.91;100.00
49723;BME280;43484;43.608;1.458;2023-06-01T05:09:32;56282.84;;;-139.91;100.00
49723;BME280;43484;43.608;1.458;2023-06-01T05:12:00;56282.84;;;-139.91;100.00
49723;BME280;43484;43.608;1.458;2023-06-01T05:14:28;56282.84;;;-139.91;100.00
49723;BME280;43484;43.608;1.458;2023-06-01T05:16:54;56282.84;;;-139.91;100.00
49723;BME280;43484;43.608;1.458;2023-06-01T05:19:21;56282.84;;;-139.91;100.00
49723;BME280;43484;43.608;1.458;2023-06-01T05:21:48;56282.84;;;-139.91;100.00
49723;BME280;43484;43.608;1.458;2023-06-01T05:24:15;56282.84;;;-139.91;100.00
49723;BME280;43484;43.608;1.458;2023-06-01T05:26:41;56282.84;;;-139.91;100.00
49723;BME280;43484;43.608;1.458;2023-06-01T05:29:08;56282.84;;;-139.91;100.00
49723;BME280;43484;43.608;1.458;2023-06-01T05:31:35;56282.84;;;-139.91;100.00
49723;BME280;43484;43.608;1.458;2023-06-01T05:34:02;56282.84;;;-139.91;100.00
49723;BME280;43484;43.608;1.458;2023-06-01T05:36:29;56282.84;;;-139.91;100.00
49723;BME280;43484;43.608;1.458;2023-06-01T05:38:58;56282.84;;;-139.91;100.00
49723;BME280;43484;43.608;1.458;2023-06-01T05:41:25;56282.84;;;-139.91;100.00
49723;BME280;43484;43.608;1.458;2023-06-01T05:43:52;56282.84;;;-139.91;100.00
49723;BME280;43484;43.608;1.458;2023-06-01T05:46:19;56282.84;;;-139.91;100.00
49723;BME280;43484;43.608;1.458;2023-06-01T05:48:46;56282.84;;;-139.91;100.00
49723;BME280;43484;43.608;1.458;2023-06-01T05:51:13;56282.84;;;-139.91;100.00
49723;BME280;43484;43.608;1.458;2023-06-01T05:53:40;56282.84;;;-139.91;100.00
49723;BME280;43484;43.608;1.458;2023-06-01T05:56:07;56282.84;;;-139.91;100.00
49723;BME280;43484;43.608;1.458;2023-06-01T05:58:34;56282.84;;;-139.91;100.00
49723;BME280;43484;43.608;1.458;2023-06-01T06:01:01;56282.84;;;-139.91;100.00
49723;BME280;43484;43.608;1.458;2023-06-01T06:03:28;56282.84;;;-139.91;100.00
49723;BME280;43484;43.608;1.458;2023-06-01T06:05:55;56282.84;;;-139.91;100.00
49723;BME280;43484;43.608;1.458;2023-06-01T06:08:22;56282.84;;;-139.91;100.00
49723;BME280;43484;43.608;1.458;2023-06-01T06:10:48;56282.84;;;-139.91;100.00
49723;BME280;43484;43.608;1.458;2023-06-01T06:13:15;56282.84;;;-139.91;100.00
49723;BME280;43484;43.608;1.458;2023-06-01T06:15:42;56282.84;;;-139.91;100.00
49723;BME280;43484;43.608;1.458;2023-06-01T06:18:09;56282.84;;;-139.91;100.00
49723;BME280;43484;43.608;1.458;2023-06-01T06:20:36;56282.84;;;-139.91;100.00
49723;BME280;43484;43.608;1.458;2023-06-01T06:23:03;56282.84;;;-139.91;100.00
49723;BME280;43484;43.608;1.458;2023-06-01T06:25:29;56282.84;;;-139.91;100.00
49723;BME280;43484;43.608;1.458;2023-06-01T06:27:56;56282.84;;;-139.91;100.00
49723;BME280;43484;43.608;1.458;2023-06-01T06:30:23;56282.84;;;-139.91;100.00
49723;BME280;43484;43.608;1.458;2023-06-01T06:32:51;56282.84;;;-139.91;100.00
49723;BME280;43484;43.608;1.458;2023-06-01T06:35:18;56282.84;;;-139.91;100.00
49723;BME280;43484;43.608;1.458;2023-06-01T06:37:44;56282.84;;;-139.91;100.00
49723;BME280;43484;43.608;1.458;2023-06-01T06:40:11;56282.84;;;-139.91;100.00
49723;BME280;43484;43.608;1.458;2023-06-01T06:42:38;56282.84;;;-139.91;100.00
49723;BME280;43484;43.608;1.458;2023-06-01T06:45:05;56282.84;;;-139.91;100.00
49723;BME280;43484;43.608;1.458;2023-06-01T06:47:32;56282.84;;;-139.91;100.00
49723;BME280;43484;43.608;1.458;2023-06-01T06:49:59;56282.84;;;-139.91;100.00
49723;BME280;43484;43.608;1.458;2023-06-01T06:52:25;56282.84;;;-139.91;100.00
49723;BME280;43484;43.608;1.458;2023-06-01T06:54:52;56282.84;;;-139.91;100.00
49723;BME280;43484;43.608;1.458;2023-06-01T06:57:18;56282.84;;;-139.91;100.00
49723;BME280;43484;43.608;1.458;2023-06-01T06:59:45;56282.84;;;-139.91;100.00
49723;BME280;43484;43.608;1.458;2023-06-01T07:02:12;56282.84;;;-139.91;100.00
49723;BME280;43484;43.608;1.458;2023-06-01T07:04:39;56282.84;;;-139.91;100.00
49723;BME280;43484;43.608;1.458;2023-06-01T07:07:47;99434.75;;;19.09;100.00
49723;BME280;43484;43.608;1.458;2023-06-01T07:10:15;99420.84;;;19.15;100.00
49723;BME280;43484;43.608;1.458;2023-06-01T07:12:42;99402.75;;;19.09;100.00
49723;BME280;43484;43.608;1.458;2023-06-01T07:15:09;99407.06;;;19.10;100.00
49723;BME280;43484;43.608;1.458;2023-06-01T07:17:36;99394.81;;;19.22;100.00
49723;BME280;43484;43.608;1.458;2023-06-01T07:20:03;99416.28;;;19.36;100.00
49723;BME280;43484;43.608;1.458;2023-06-01T07:22:33;99426.66;;;19.38;100.00
49723;BME280;43484;43.608;1.458;2023-06-01T07:25:00;99428.34;;;19.43;100.00
49723;BME280;43484;43.608;1.458;2023-06-01T07:27:26;99426.41;;;19.56;100.00
49723;BME280;43484;43.608;1.458;2023-06-01T07:29:53;99449.50;;;19.80;100.00
49723;BME280;43484;43.608;1.458;2023-06-01T07:32:22;99499.44;;;20.03;100.00
49723;BME280;43484;43.608;1.458;2023-06-01T07:34:49;99528.09;;;20.00;100.00
49723;BME280;43484;43.608;1.458;2023-06-01T07:37:16;99552.31;;;20.04;100.00
49723;BME280;43484;43.608;1.458;2023-06-01T07:39:48;99553.00;;;20.19;100.00
49723;BME280;43484;43.608;1.458;2023-06-01T07:42:15;99551.84;;;20.38;100.00
49723;BME280;43484;43.608;1.458;2023-06-01T07:44:42;99571.13;;;20.24;100.00
49723;BME280;43484;43.608;1.458;2023-06-01T07:47:09;99583.25;;;20.25;100.00
49723;BME280;43484;43.608;1.458;2023-06-01T07:49:36;99583.31;;;20.22;100.00
49723;BME280;43484;43.608;1.458;2023-06-01T07:52:04;99591.09;;;20.22;100.00
49723;BME280;43484;43.608;1.458;2023-06-01T07:54:33;99597.97;;;20.27;100.00
49723;BME280;43484;43.608;1.458;2023-06-01T07:57:00;99599.59;;;20.36;100.00
49723;BME280;43484;43.608;1.458;2023-06-01T07:59:27;99596.84;;;20.45;100.00
49723;BME280;43484;43.608;1.458;2023-06-01T08:01:55;99592.50;;;20.45;100.00
49723;BME280;43484;43.608;1.458;2023-06-01T08:04:23;99579.66;;;20.33;100.00
49723;BME280;43484;43.608;1.458;2023-06-01T08:06:50;99592.69;;;20.32;100.00
49723;BME280;43484;43.608;1.458;2023-06-01T08:09:21;99585.97;;;20.17;100.00
49723;BME280;43484;43.608;1.458;2023-06-01T08:11:50;99574.78;;;20.06;100.00
49723;BME280;43484;43.608;1.458;2023-06-01T08:14:16;99575.59;;;20.14;100.00
49723;BME280;43484;43.608;1.458;2023-06-01T08:16:45;99578.31;;;20.04;100.00
49723;BME280;43484;43.608;1.458;2023-06-01T08:19:12;99571.28;;;20.10;100.00
49723;BME280;43484;43.608;1.458;2023-06-01T08:21:38;99587.72;;;20.14;100.00
49723;BME280;43484;43.608;1.458;2023-06-01T08:24:07;99573.84;;;20.16;100.00
49723;BME280;43484;43.608;1.458;2023-06-01T08:26:37;99577.19;;;20.26;100.00
49723;BME280;43484;43.608;1.458;2023-06-01T08:29:04;99585.94;;;20.20;100.00
49723;BME280;43484;43.608;1.458;2023-06-01T08:31:30;99575.28;;;20.37;100.00
49723;BME280;43484;43.608;1.458;2023-06-01T08:33:57;99577.91;;;20.35;100.00
49723;BME280;43484;43.608;1.458;2023-06-01T08:36:24;99590.19;;;20.27;100.00
49723;BME280;43484;43.608;1.458;2023-06-01T08:38:54;99553.38;;;20.53;100.00
49723;BME280;43484;43.608;1.458;2023-06-01T08:41:40;99593.84;;;20.72;100.00
49723;BME280;43484;43.608;1.458;2023-06-01T08:44:08;99603.16;;;20.88;100.00
49723;BME280;43484;43.608;1.458;2023-06-01T08:46:38;99616.66;;;21.14;100.00
49723;BME280;43484;43.608;1.458;2023-06-01T08:49:07;99630.31;;;21.28;100.00
49723;BME280;43484;43.608;1.458;2023-06-01T08:51:34;99648.13;;;21.52;100.00
49723;BME280;43484;43.608;1.458;2023-06-01T08:54:05;99661.13;;;21.54;100.00
49723;BME280;43484;43.608;1.458;2023-06-01T08:56:35;99676.34;;;21.79;100.00
49723;BME280;43484;43.608;1.458;2023-06-01T08:59:03;99687.38;;;21.93;100.00
49723;BME280;43484;43.608;1.458;2023-06-01T09:01:30;99687.44;;;21.92;100.00
49723;BME280;43484;43.608;1.458;2023-06-01T09:03:57;99693.69;;;21.82;100.00
49723;BME280;43484;43.608;1.458;2023-06-01T09:06:23;99694.78;;;21.67;100.00
49723;BME280;43484;43.608;1.458;2023-06-01T09:08:50;99697.53;;;21.60;100.00
49723;BME280;43484;43.608;1.458;2023-06-01T09:11:18;99689.53;;;21.69;100.00
49723;BME280;43484;43.608;1.458;2023-06-01T09:13:45;99693.94;;;21.67;100.00
49723;BME280;43484;43.608;1.458;2023-06-01T09:16:12;99699.41;;;21.50;100.00
49723;BME280;43484;43.608;1.458;2023-06-01T09:18:52;99694.97;;;21.55;100.00
49723;BME280;43484;43.608;1.458;2023-06-01T09:21:19;99701.97;;;21.55;100.00
49723;BME280;43484;43.608;1.458;2023-06-01T09:23:46;99692.81;;;21.81;100.00
49723;BME280;43484;43.608;1.458;2023-06-01T09:26:14;99700.28;;;22.01;100.00
49723;BME280;43484;43.608;1.458;2023-06-01T09:28:52;99697.84;;;21.92;100.00
49723;BME280;43484;43.608;1.458;2023-06-01T09:34:09;99692.31;;;22.08;100.00
49723;BME280;43484;43.608;1.458;2023-06-01T09:36:38;99690.25;;;22.24;100.00
49723;BME280;43484;43.608;1.458;2023-06-01T09:39:24;99695.88;;;22.47;100.00
49723;BME280;43484;43.608;1.458;2023-06-01T09:49:30;99692.66;;;22.77;100.00
49723;BME280;43484;43.608;1.458;2023-06-01T09:54:32;99688.72;;;22.96;100.00
49723;BME280;43484;43.608;1.458;2023-06-01T09:57:00;99687.44;;;22.77;100.00
49723;BME280;43484;43.608;1.458;2023-06-01T09:59:42;99690.63;;;22.90;100.00
49723;BME280;43484;43.608;1.458;2023-06-01T10:02:17;99691.44;;;22.92;100.00
49723;BME280;43484;43.608;1.458;2023-06-01T10:04:53;99685.47;;;22.87;100.00
49723;BME280;43484;43.608;1.458;2023-06-01T10:07:22;99684.59;;;22.86;100.00
49723;BME280;43484;43.608;1.458;2023-06-01T10:09:57;99679.94;;;23.00;100.00
49723;BME280;43484;43.608;1.458;2023-06-01T10:12:25;99684.53;;;22.89;100.00
49723;BME280;43484;43.608;1.458;2023-06-01T10:14:52;99681.94;;;22.88;100.00
49723;BME280;43484;43.608;1.458;2023-06-01T10:17:19;99684.78;;;22.79;100.00
49723;BME280;43484;43.608;1.458;2023-06-01T10:19:47;99677.75;;;22.82;100.00
49723;BME280;43484;43.608;1.458;2023-06-01T10:22:14;99682.09;;;22.82;100.00
49723;BME280;43484;43.608;1.458;2023-06-01T10:24:43;99671.13;;;23.03;100.00
49723;BME280;43484;43.608;1.458;2023-06-01T10:27:18;99675.03;;;23.22;100.00
49723;BME280;43484;43.608;1.458;2023-06-01T10:29:48;99673.47;;;23.15;100.00
49723;BME280;43484;43.608;1.458;2023-06-01T10:35:04;99667.16;;;23.23;100.00
49723;BME280;43484;43.608;1.458;2023-06-01T10:37:31;99678.50;;;23.24;100.00
49723;BME280;43484;43.608;1.458;2023-06-01T10:42:44;99675.41;;;23.43;100.00
49723;BME280;43484;43.608;1.458;2023-06-01T10:45:36;99667.69;;;23.39;100.00
49723;BME280;43484;43.608;1.458;2023-06-01T10:48:11;99669.22;;;23.47;100.00
49723;BME280;43484;43.608;1.458;2023-06-01T10:50:42;99673.63;;;23.45;100.00
49723;BME280;43484;43.608;1.458;2023-06-01T10:53:30;99656.03;;;23.52;100.00
49723;BME280;43484;43.608;1.458;2023-06-01T10:58:43;99659.25;;;23.62;100.00
49723;BME280;43484;43.608;1.458;2023-06-01T11:01:10;99659.25;;;23.94;100.00
49723;BME280;43484;43.608;1.458;2023-06-01T11:03:48;99662.09;;;23.85;100.00
49723;BME280;43484;43.608;1.458;2023-06-01T11:06:31;99664.41;;;23.97;100.00
49723;BME280;43484;43.608;1.458;2023-06-01T11:09:02;99667.50;;;23.79;100.00
49723;BME280;43484;43.608;1.458;2023-06-01T11:14:24;99665.44;;;23.90;100.00
49723;BME280;43484;43.608;1.458;2023-06-01T11:16:52;99667.38;;;23.83;100.00
49723;BME280;43484;43.608;1.458;2023-06-01T11:19:22;99667.78;;;24.02;100.00
49723;BME280;43484;43.608;1.458;2023-06-01T11:24:34;99667.41;;;24.15;100.00
49723;BME280;43484;43.608;1.458;2023-06-01T11:27:06;99663.28;;;24.07;100.00
49723;BME280;43484;43.608;1.458;2023-06-01T11:29:33;99665.25;;;23.97;100.00
49723;BME280;43484;43.608;1.458;2023-06-01T11:32:02;99660.75;;;24.04;100.00
49723;BME280;43484;43.608;1.458;2023-06-01T11:34:37;99653.50;;;24.13;100.00
49723;BME280;43484;43.608;1.458;2023-06-01T11:37:11;99660.28;;;24.20;100.00
49723;BME280;43484;43.608;1.458;2023-06-01T11:39:39;99646.09;;;24.27;100.00
49723;BME280;43484;43.608;1.458;2023-06-01T11:42:14;99644.44;;;24.54;100.00
49723;BME280;43484;43.608;1.458;2023-06-01T11:44:43;99637.50;;;24.53;100.00
49723;BME280;43484;43.608;1.458;2023-06-01T11:47:14;99644.50;;;24.52;100.00
49723;BME280;43484;43.608;1.458;2023-06-01T11:52:09;99635.59;;;24.58;100.00
49723;BME280;43484;43.608;1.458;2023-06-01T11:54:36;99641.50;;;24.64;100.00
49723;BME280;43484;43.608;1.458;2023-06-01T11:57:04;99641.75;;;24.55;100.00
49723;BME280;43484;43.608;1.458;2023-06-01T11:59:46;99626.81;;;24.59;100.00
49723;BME280;43484;43.608;1.458;2023-06-01T12:02:23;99631.81;;;24.68;100.00
49723;BME280;43484;43.608;1.458;2023-06-01T12:05:04;99625.88;;;24.61;100.00
49723;BME280;43484;43.608;1.458;2023-06-01T12:07:46;99627.41;;;24.68;100.00
49723;BME280;43484;43.608;1.458;2023-06-01T12:10:13;99618.53;;;24.74;100.00
49723;BME280;43484;43.608;1.458;2023-06-01T12:12:43;99615.41;;;24.89;100.00
49723;BME280;43484;43.608;1.458;2023-06-01T12:15:11;99609.78;;;25.01;100.00
49723;BME280;43484;43.608;1.458;2023-06-01T12:20:42;99598.81;;;24.89;100.00
49723;BME280;43484;43.608;1.458;2023-06-01T12:25:36;99587.72;;;25.08;100.00
49723;BME280;43484;43.608;1.458;2023-06-01T12:28:04;99602.78;;;25.02;100.00
49723;BME280;43484;43.608;1.458;2023-06-01T12:30:32;99594.06;;;25.01;100.00
49723;BME280;43484;43.608;1.458;2023-06-01T12:32:59;99597.78;;;24.94;100.00
49723;BME280;43484;43.608;1.458;2023-06-01T12:35:26;99597.50;;;25.03;100.00
49723;BME280;43484;43.608;1.458;2023-06-01T12:38:03;99587.25;;;24.96;100.00
49723;BME280;43484;43.608;1.458;2023-06-01T12:40:30;99593.63;;;24.87;100.00
49723;BME280;43484;43.608;1.458;2023-06-01T12:42:57;99579.88;;;24.81;100.00
49723;BME280;43484;43.608;1.458;2023-06-01T12:45:24;99581.59;;;24.82;100.00
49723;BME280;43484;43.608;1.458;2023-06-01T12:47:51;99586.03;;;24.80;100.00
49723;BME280;43484;43.608;1.458;2023-06-01T12:50:17;99579.88;;;24.81;100.00
49723;BME280;43484;43.608;1.458;2023-06-01T12:52:44;99581.25;;;24.92;100.00
49723;BME280;43484;43.608;1.458;2023-06-01T12:55:11;99574.59;;;25.08;100.00
49723;BME280;43484;43.608;1.458;2023-06-01T12:57:37;99574.13;;;24.96;100.00
49723;BME280;43484;43.608;1.458;2023-06-01T13:00:05;99582.22;;;24.90;100.00
49723;BME280;43484;43.608;1.458;2023-06-01T13:02:33;99575.97;;;24.66;100.00
49723;BME280;43484;43.608;1.458;2023-06-01T13:05:02;99566.56;;;24.59;100.00
49723;BME280;43484;43.608;1.458;2023-06-01T13:07:31;99574.03;;;24.72;100.00
49723;BME280;43484;43.608;1.458;2023-06-01T13:09:57;99570.81;;;24.91;100.00
49723;BME280;43484;43.608;1.458;2023-06-01T13:12:25;99565.97;;;25.05;100.00
49723;BME280;43484;43.608;1.458;2023-06-01T13:14:54;99566.56;;;25.13;100.00
49723;BME280;43484;43.608;1.458;2023-06-01T13:17:22;99565.41;;;25.21;100.00
49723;BME280;43484;43.608;1.458;2023-06-01T13:19:49;99561.50;;;25.08;100.00
49723;BME280;43484;43.608;1.458;2023-06-01T13:22:16;99559.81;;;25.06;100.00
49723;BME280;43484;43.608;1.458;2023-06-01T13:24:42;99558.13;;;25.05;100.00